Conneaut Harbor, Ohio
Current Conditions -  °F | °C
As of 7:53 AM on Saturday 01 Nov 2014 (Local Time) from KHZY Reporting Station
Light Rain Light Rain  
Wind Chill: 32°   Ceiling: 700
Heat Index: 39°   Visibility: 10mi
Dew Point: 37°   Wind: 12mph
Humidity: 93%   Direction: 30°NNE
Pressure: 30.07"   Gusts: 22mph
Location:  41.8949°N, 80.5816°W
Report Text: KHZY 011153Z AUTO 03010G19KT 10SM -RA OVC007 04/03 A3007 RMK AO2 SLP187 P0002 60004 70008 T00390028 10056 20039 53029
Loading
Personal Weather Stations






























Interactive Weather Map
Tropical Storm Tracking
New forecast layout! Learn more

10-Day Weather Forecast

Advertisements
Track Severe Weather on mobile